createdAt,value
2023-04-05T00:01:12.591Z,84.17
2023-04-05T00:03:43.446Z,83.69
2023-04-05T00:06:13.440Z,83.72
2023-04-05T00:08:44.057Z,84.72
2023-04-05T00:11:12.000Z,85.29
2023-04-05T00:13:39.983Z,86.14
2023-04-05T00:16:08.075Z,85.62
2023-04-05T00:18:38.820Z,85.85
2023-04-05T00:21:06.932Z,85.78
2023-04-05T00:23:38.767Z,85.28
2023-04-05T00:26:07.595Z,85.48
2023-04-05T00:28:36.263Z,84.92
2023-04-05T00:31:05.824Z,85.40
2023-04-05T00:33:33.876Z,85.16
2023-04-05T00:36:11.870Z,85.67
2023-04-05T00:38:41.014Z,85.05
2023-04-05T00:41:09.887Z,85.69
2023-04-05T00:43:38.112Z,85.96
2023-04-05T00:46:07.324Z,85.45
2023-04-05T00:48:36.187Z,85.66
2023-04-05T00:51:04.606Z,86.08
2023-04-05T00:53:32.738Z,86.51
2023-04-05T00:56:01.617Z,85.29
2023-04-05T00:58:29.979Z,85.65
2023-04-05T01:01:09.761Z,85.01
2023-04-05T01:03:39.003Z,85.54
2023-04-05T01:06:12.977Z,85.78
2023-04-05T01:08:52.580Z,86.01
2023-04-05T01:11:22.316Z,85.05
2023-04-05T01:13:50.330Z,85.58
2023-04-05T01:16:18.497Z,86.26
2023-04-05T01:18:47.469Z,86.52
2023-04-05T01:21:29.783Z,86.82
2023-04-05T01:24:15.051Z,85.90
2023-04-05T01:27:05.863Z,85.65
2023-04-05T01:30:11.076Z,85.64
2023-04-05T01:32:51.553Z,86.25
2023-04-05T01:35:30.356Z,86.46
2023-04-05T01:38:02.741Z,85.88
2023-04-05T01:40:32.603Z,85.57
2023-04-05T01:43:03.797Z,84.89
2023-04-05T01:45:32.170Z,84.85
2023-04-05T01:48:01.338Z,84.70
2023-04-05T01:50:29.372Z,85.04
2023-04-05T01:52:57.560Z,85.44
2023-04-05T01:55:25.570Z,84.76
2023-04-05T01:57:56.110Z,84.11
2023-04-05T02:00:24.724Z,84.18
2023-04-05T02:02:53.231Z,83.99
2023-04-05T02:05:21.279Z,83.98
2023-04-05T02:07:49.211Z,83.41
2023-04-05T02:10:18.820Z,83.48
2023-04-05T02:12:46.794Z,82.75
2023-04-05T02:15:14.743Z,82.20
2023-04-05T02:17:46.390Z,81.96
2023-04-05T02:20:14.997Z,81.86
2023-04-05T02:22:45.579Z,81.65
2023-04-05T02:25:13.904Z,81.56
2023-04-05T02:27:42.114Z,81.58
2023-04-05T02:30:10.791Z,81.53
2023-04-05T02:32:38.748Z,81.52
2023-04-05T02:35:07.242Z,81.74
2023-04-05T02:37:35.842Z,81.48
2023-04-05T02:40:09.017Z,81.47
2023-04-05T02:42:40.187Z,81.83
2023-04-05T02:45:08.690Z,81.33
2023-04-05T02:47:36.994Z,81.60
2023-04-05T02:50:05.578Z,80.82
2023-04-05T02:56:16.481Z,81.19
2023-04-05T02:58:49.624Z,81.22
2023-04-05T03:01:24.139Z,80.83
2023-04-05T03:03:52.525Z,80.80
2023-04-05T03:06:22.737Z,81.32
2023-04-05T03:08:52.613Z,81.20
2023-04-05T03:11:24.736Z,81.71
2023-04-05T03:13:57.819Z,81.48
2023-04-05T03:16:40.149Z,82.07
2023-04-05T03:19:32.510Z,81.51
2023-04-05T03:22:10.888Z,81.62
2023-04-05T03:24:42.835Z,80.59
2023-04-05T03:27:15.395Z,79.97
2023-04-05T03:29:58.230Z,80.14
2023-04-05T03:32:26.834Z,80.59
2023-04-05T03:35:13.405Z,80.65
2023-04-05T03:37:46.215Z,80.20
2023-04-05T03:40:14.820Z,79.80
2023-04-05T03:42:53.275Z,79.75
2023-04-05T03:45:24.360Z,79.88
2023-04-05T03:47:55.431Z,78.51
2023-04-05T03:50:24.060Z,79.12
2023-04-05T03:52:53.458Z,78.65
2023-04-05T03:55:22.160Z,78.53
2023-04-05T03:57:53.014Z,78.63
2023-04-05T04:00:29.979Z,80.50
2023-04-05T04:03:21.193Z,80.29
2023-04-05T04:05:52.665Z,79.96
2023-04-05T04:08:21.593Z,79.65
2023-04-05T04:10:51.202Z,80.33
2023-04-05T04:13:28.390Z,81.03
2023-04-05T04:16:13.393Z,81.35
2023-04-05T04:18:57.269Z,80.98
2023-04-05T04:21:32.842Z,81.04
2023-04-05T04:24:36.123Z,81.85
2023-04-05T04:27:14.216Z,80.56
2023-04-05T04:30:13.081Z,80.83
2023-04-05T04:33:00.202Z,80.79
2023-04-05T04:35:40.878Z,80.86
2023-04-05T04:38:21.983Z,80.59
2023-04-05T04:41:10.224Z,79.92
2023-04-05T04:43:48.206Z,80.52
2023-04-05T04:46:30.885Z,78.90
2023-04-05T04:49:21.882Z,79.59
2023-04-05T04:51:49.942Z,79.51
2023-04-05T04:54:21.195Z,78.92
2023-04-05T04:56:49.241Z,78.73
2023-04-05T04:59:17.367Z,78.90
2023-04-05T05:01:46.177Z,78.54
2023-04-05T05:04:14.227Z,77.71
2023-04-05T05:06:43.340Z,77.08
2023-04-05T05:09:11.387Z,77.30
2023-04-05T05:11:48.833Z,76.99
2023-04-05T05:14:16.861Z,76.50
2023-04-05T05:16:44.913Z,75.74
2023-04-05T05:19:12.950Z,74.46
2023-04-05T05:21:47.347Z,74.25
2023-04-05T05:24:15.362Z,74.84
2023-04-05T05:26:44.411Z,74.49
2023-04-05T05:29:12.405Z,74.83
2023-04-05T05:31:44.403Z,74.48
2023-04-05T05:34:13.539Z,74.93
2023-04-05T05:36:48.236Z,72.23
2023-04-05T05:39:16.194Z,71.61
2023-04-05T05:41:45.146Z,71.72
2023-04-05T05:44:14.171Z,70.12
2023-04-05T05:46:42.104Z,69.96
2023-04-05T05:49:10.174Z,70.79
2023-04-05T05:51:39.744Z,69.82
2023-04-05T05:54:11.812Z,69.37
2023-04-05T05:56:40.239Z,69.62
2023-04-05T05:59:08.162Z,68.68
2023-04-05T06:01:42.927Z,67.96
2023-04-05T06:04:11.100Z,66.89
2023-04-05T06:06:39.380Z,66.78
2023-04-05T06:09:07.439Z,65.33
2023-04-05T06:11:37.132Z,66.81
2023-04-05T06:14:09.052Z,66.82
2023-04-05T06:16:37.480Z,65.84
2023-04-05T06:19:05.522Z,66.50
2023-04-05T06:21:33.626Z,65.54
2023-04-05T06:24:01.831Z,64.46
2023-04-05T06:26:31.852Z,64.84
2023-04-05T06:28:59.813Z,64.69
2023-04-05T06:31:32.241Z,65.17
2023-04-05T06:34:01.352Z,63.66
2023-04-05T06:36:34.371Z,61.15
2023-04-05T06:39:02.742Z,58.67
2023-04-05T06:41:31.049Z,54.77
2023-04-05T06:43:59.395Z,50.36
2023-04-05T06:46:29.396Z,47.81
2023-04-05T06:48:59.584Z,46.16
2023-04-05T06:51:29.874Z,48.64
2023-04-05T06:53:58.463Z,51.03
2023-04-05T06:56:27.260Z,52.15
2023-04-05T06:58:56.011Z,53.86
2023-04-05T07:01:25.270Z,57.55
2023-04-05T07:03:53.977Z,57.04
2023-04-05T07:06:24.248Z,57.09
2023-04-05T07:08:52.879Z,57.66
2023-04-05T07:11:23.549Z,58.38
2023-04-05T07:13:51.469Z,60.15
2023-04-05T07:16:25.706Z,61.38
2023-04-05T07:18:56.011Z,61.64
2023-04-05T07:21:24.424Z,61.17
2023-04-05T07:23:53.953Z,62.04
2023-04-05T07:26:22.826Z,61.97
2023-04-05T07:28:50.850Z,63.12
2023-04-05T07:31:18.783Z,61.71
2023-04-05T07:33:49.927Z,62.17
2023-04-05T07:36:18.360Z,63.89
2023-04-05T07:38:47.490Z,62.95
2023-04-05T07:41:18.799Z,61.75
2023-04-05T07:43:50.277Z,63.86
2023-04-05T07:46:19.899Z,62.04
2023-04-05T07:48:48.926Z,61.82
2023-04-05T07:51:17.190Z,62.50
2023-04-05T07:53:45.267Z,60.10
2023-04-05T07:56:16.599Z,59.93
2023-04-05T07:58:45.215Z,58.79
2023-04-05T08:01:13.517Z,59.49
2023-04-05T08:03:41.616Z,60.18
2023-04-05T08:06:11.750Z,60.41
2023-04-05T08:08:41.958Z,59.23
2023-04-05T08:11:10.208Z,60.10
2023-04-05T08:13:41.901Z,61.27
2023-04-05T08:16:11.605Z,59.55
2023-04-05T08:18:39.601Z,59.50
2023-04-05T08:21:07.541Z,60.62
2023-04-05T08:23:35.855Z,59.76
2023-04-05T08:26:04.404Z,60.09
2023-04-05T08:28:32.785Z,58.69
2023-04-05T08:31:02.080Z,60.19
2023-04-05T08:33:31.372Z,59.65
2023-04-05T08:36:07.983Z,59.41
2023-04-05T08:38:36.199Z,57.97
2023-04-05T08:41:21.988Z,59.37
2023-04-05T08:44:03.834Z,59.62
2023-04-05T08:46:36.278Z,59.25
2023-04-05T08:49:09.041Z,59.13
2023-04-05T08:51:39.574Z,60.55
2023-04-05T08:54:08.086Z,60.85
2023-04-05T08:56:37.341Z,60.47
2023-04-05T08:59:11.466Z,61.24
2023-04-05T09:01:44.391Z,59.14
2023-04-05T09:04:22.366Z,62.11
2023-04-05T09:06:52.588Z,61.47
2023-04-05T09:09:21.891Z,60.40
2023-04-05T09:11:53.448Z,60.09
2023-04-05T09:14:22.182Z,60.06
2023-04-05T09:16:50.364Z,58.62
2023-04-05T09:19:18.651Z,59.94
2023-04-05T09:22:03.222Z,59.60
2023-04-05T09:24:42.359Z,59.09
2023-04-05T09:27:12.403Z,61.34
2023-04-05T09:29:42.912Z,60.60
2023-04-05T09:32:12.426Z,58.47
2023-04-05T09:34:42.072Z,58.61
2023-04-05T09:37:22.239Z,57.83
2023-04-05T09:40:02.033Z,56.89
2023-04-05T09:42:44.049Z,56.89
2023-04-05T09:45:12.682Z,57.75
2023-04-05T09:47:58.135Z,59.54
2023-04-05T09:50:26.606Z,59.25
2023-04-05T09:53:16.736Z,60.38
2023-04-05T09:55:47.414Z,61.22
2023-04-05T09:58:22.483Z,61.45
2023-04-05T10:01:03.342Z,62.73
2023-04-05T10:03:48.565Z,62.99
2023-04-05T10:06:17.400Z,62.81
2023-04-05T10:08:47.816Z,62.65
2023-04-05T10:11:19.676Z,62.97
2023-04-05T10:13:50.710Z,62.40
2023-04-05T10:16:22.675Z,62.73
2023-04-05T10:18:53.109Z,63.12
2023-04-05T10:21:30.000Z,62.47
2023-04-05T10:24:16.790Z,63.04
2023-04-05T10:27:18.099Z,62.83
2023-04-05T10:30:09.321Z,62.69
2023-04-05T10:32:58.657Z,64.39
2023-04-05T10:35:34.631Z,63.36
2023-04-05T10:38:02.753Z,63.28
2023-04-05T10:40:33.410Z,62.69
2023-04-05T10:43:04.524Z,63.10
2023-04-05T10:45:35.782Z,64.22
2023-04-05T10:48:19.310Z,62.64
2023-04-05T10:50:48.866Z,64.29
2023-04-05T10:53:19.589Z,63.89
2023-04-05T10:55:50.031Z,64.22
2023-04-05T10:58:19.531Z,63.34
2023-04-05T11:00:49.643Z,62.40
2023-04-05T11:03:43.054Z,61.64
2023-04-05T11:06:26.286Z,62.49
2023-04-05T11:08:59.360Z,62.15
2023-04-05T11:11:27.932Z,60.98
2023-04-05T11:13:57.305Z,61.10
2023-04-05T11:16:40.282Z,61.64
2023-04-05T11:19:08.405Z,60.32
2023-04-05T11:21:36.901Z,61.32
2023-04-05T11:24:08.350Z,60.36
2023-04-05T11:26:48.280Z,61.40
2023-04-05T11:29:16.510Z,61.30
2023-04-05T11:32:06.553Z,60.87
2023-04-05T11:34:37.988Z,59.90
2023-04-05T11:37:06.102Z,60.15
2023-04-05T11:39:34.065Z,59.92
2023-04-05T11:42:16.317Z,59.36
2023-04-05T11:44:49.893Z,59.76
2023-04-05T11:47:18.741Z,59.00
2023-04-05T11:49:50.636Z,59.42
2023-04-05T11:52:20.844Z,58.89
2023-04-05T11:54:49.489Z,60.66
2023-04-05T11:57:24.709Z,58.42
2023-04-05T11:59:53.796Z,60.32
2023-04-05T12:02:22.692Z,59.55
2023-04-05T12:04:58.232Z,60.42
2023-04-05T12:07:29.706Z,60.67
2023-04-05T12:10:10.164Z,61.01
2023-04-05T12:12:40.784Z,61.05
2023-04-05T12:15:12.203Z,62.08
2023-04-05T12:17:51.267Z,62.41
2023-04-05T12:20:27.069Z,62.22
2023-04-05T12:22:56.785Z,62.70
2023-04-05T12:25:26.457Z,63.13
2023-04-05T12:27:54.686Z,62.75
2023-04-05T12:30:24.377Z,61.88
2023-04-05T12:32:55.056Z,61.99
2023-04-05T12:35:25.290Z,61.88
2023-04-05T12:37:53.305Z,62.66
2023-04-05T12:40:23.523Z,62.80
2023-04-05T12:42:52.755Z,62.07
2023-04-05T12:45:24.186Z,61.61
2023-04-05T12:48:01.303Z,61.21
2023-04-05T12:50:31.214Z,62.22
2023-04-05T12:53:08.848Z,61.52
2023-04-05T12:55:46.086Z,61.94
2023-04-05T12:58:14.929Z,61.77
2023-04-05T13:00:42.963Z,61.11
2023-04-05T13:03:20.888Z,60.84
2023-04-05T13:05:49.591Z,61.51
2023-04-05T13:08:21.232Z,62.54
2023-04-05T13:10:50.448Z,61.86
2023-04-05T13:13:21.325Z,62.21
2023-04-05T13:15:51.976Z,62.09
2023-04-05T13:18:20.818Z,62.08
2023-04-05T13:20:48.819Z,63.54
2023-04-05T13:23:16.857Z,63.30
2023-04-05T13:25:47.706Z,63.09
2023-04-05T13:28:16.266Z,64.26
2023-04-05T13:30:44.365Z,63.48
2023-04-05T13:33:12.908Z,64.39
2023-04-05T13:35:41.659Z,64.32
2023-04-05T13:38:09.891Z,64.01
2023-04-05T13:40:37.858Z,64.72
2023-04-05T13:43:06.225Z,64.76
2023-04-05T13:45:34.831Z,62.86
2023-04-05T13:48:03.617Z,63.69
2023-04-05T13:50:31.622Z,63.42
2023-04-05T13:52:59.662Z,62.79
2023-04-05T13:55:27.589Z,62.62
2023-04-05T13:57:55.579Z,63.08
2023-04-05T14:00:24.272Z,65.06
2023-04-05T14:02:55.555Z,63.14
2023-04-05T14:05:24.126Z,63.18
2023-04-05T14:07:52.109Z,62.89
2023-04-05T14:10:21.868Z,62.57
2023-04-05T14:12:50.217Z,61.70
2023-04-05T14:15:18.386Z,61.31
2023-04-05T14:17:46.398Z,61.60
2023-04-05T14:20:14.540Z,62.57
2023-04-05T14:22:42.670Z,61.31
2023-04-05T14:25:11.299Z,63.22
2023-04-05T14:27:42.733Z,62.09
2023-04-05T14:30:12.760Z,63.67
2023-04-05T14:32:42.076Z,62.32
2023-04-05T14:35:10.481Z,62.16
2023-04-05T14:37:38.508Z,61.13
2023-04-05T14:40:07.489Z,61.46
2023-04-05T14:42:47.633Z,63.04
2023-04-05T14:45:19.062Z,61.73
2023-04-05T14:47:47.601Z,63.02
2023-04-05T14:50:16.174Z,63.85
2023-04-05T14:52:46.041Z,63.97
2023-04-05T14:55:14.973Z,63.06
2023-04-05T14:57:43.854Z,63.41
2023-04-05T15:00:13.948Z,63.57
2023-04-05T15:02:42.584Z,63.67
2023-04-05T15:05:11.729Z,63.63
2023-04-05T15:07:40.113Z,63.81
2023-04-05T15:10:09.103Z,63.87
2023-04-05T15:12:37.711Z,64.98
2023-04-05T15:15:07.087Z,65.44
2023-04-05T15:17:35.972Z,64.66
2023-04-05T15:20:05.092Z,64.14
2023-04-05T15:22:34.320Z,64.41
2023-04-05T15:25:02.919Z,64.67
2023-04-05T15:27:31.579Z,65.15
2023-04-05T15:30:00.800Z,65.28
2023-04-05T15:32:29.153Z,65.21
2023-04-05T15:34:58.314Z,65.69
2023-04-05T15:37:26.333Z,65.25
2023-04-05T15:39:54.839Z,65.17
2023-04-05T15:42:23.527Z,65.27
2023-04-05T15:44:52.237Z,66.06
2023-04-05T15:47:20.800Z,65.75
2023-04-05T15:49:49.488Z,66.32
2023-04-05T15:52:18.421Z,65.92
2023-04-05T15:54:48.121Z,65.85
2023-04-05T15:57:16.686Z,66.55
2023-04-05T15:59:45.378Z,67.74
2023-04-05T16:02:14.121Z,67.08
2023-04-05T16:04:42.911Z,68.39
2023-04-05T16:07:11.546Z,67.82
2023-04-05T16:09:40.188Z,68.14
2023-04-05T16:12:08.699Z,68.40
2023-04-05T16:14:37.529Z,68.80
2023-04-05T16:17:06.358Z,68.75
2023-04-05T16:19:37.420Z,68.36
2023-04-05T16:22:06.677Z,69.23
2023-04-05T16:24:37.343Z,68.96
2023-04-05T16:27:06.704Z,68.69
2023-04-05T16:29:34.926Z,67.98
2023-04-05T16:32:04.004Z,69.14
2023-04-05T16:34:32.646Z,69.37
2023-04-05T16:37:01.388Z,68.99
2023-04-05T16:39:30.211Z,69.55
2023-04-05T16:41:58.800Z,69.15
2023-04-05T16:44:27.307Z,69.04
2023-04-05T16:46:56.954Z,69.60
2023-04-05T16:49:25.557Z,69.08
2023-04-05T16:51:54.306Z,68.94
2023-04-05T16:54:23.056Z,69.68
2023-04-05T16:56:51.744Z,68.76
2023-04-05T16:59:20.323Z,70.21
2023-04-05T17:01:49.047Z,69.44
2023-04-05T17:04:18.027Z,69.56
2023-04-05T17:06:46.655Z,70.12
2023-04-05T17:09:15.603Z,70.65
2023-04-05T17:11:43.951Z,70.13
2023-04-05T17:14:12.722Z,70.70
2023-04-05T17:16:41.330Z,70.75
2023-04-05T17:19:10.072Z,71.58
2023-04-05T17:21:38.678Z,70.43
2023-04-05T17:24:07.827Z,70.70
2023-04-05T17:26:36.356Z,71.58
2023-04-05T17:29:05.064Z,72.37
2023-04-05T17:31:34.140Z,70.71
2023-04-05T17:34:03.051Z,71.47
2023-04-05T17:36:32.014Z,70.54
2023-04-05T17:39:00.732Z,71.35
2023-04-05T17:41:29.141Z,71.42
2023-04-05T17:43:57.760Z,71.96
2023-04-05T17:46:40.111Z,72.19
2023-04-05T17:49:09.876Z,71.21
2023-04-05T17:51:38.211Z,70.70
2023-04-05T17:54:07.185Z,70.50
2023-04-05T17:56:35.710Z,72.14
2023-04-05T17:59:04.840Z,71.96
2023-04-05T18:01:33.560Z,70.88
2023-04-05T18:04:02.486Z,70.49
2023-04-05T18:06:31.543Z,71.07
2023-04-05T18:09:00.509Z,70.00
2023-04-05T18:11:29.022Z,70.63
2023-04-05T18:13:58.419Z,70.63
2023-04-05T18:16:31.756Z,70.03
2023-04-05T18:19:01.535Z,70.35
2023-04-05T18:21:30.378Z,69.55
2023-04-05T18:23:59.249Z,70.98
2023-04-05T18:26:28.783Z,69.94
2023-04-05T18:29:00.536Z,70.23
2023-04-05T18:31:29.833Z,70.06
2023-04-05T18:34:01.113Z,70.31
2023-04-05T18:36:29.795Z,71.33
2023-04-05T18:39:00.950Z,71.28
2023-04-05T18:41:30.475Z,71.28
2023-04-05T18:43:59.554Z,70.62
2023-04-05T18:46:28.506Z,71.38
2023-04-05T18:48:58.370Z,71.33
2023-04-05T18:51:27.486Z,71.35
2023-04-05T18:53:55.906Z,71.61
2023-04-05T18:56:24.664Z,71.47
2023-04-05T18:58:53.129Z,71.40
2023-04-05T19:01:22.620Z,71.87
2023-04-05T19:03:51.397Z,71.58
2023-04-05T19:06:20.079Z,71.04
2023-04-05T19:08:48.988Z,70.53
2023-04-05T19:11:18.890Z,70.78
2023-04-05T19:13:48.026Z,72.16
2023-04-05T19:16:17.871Z,71.79
2023-04-05T19:18:46.800Z,71.98
2023-04-05T19:21:15.417Z,71.62
2023-04-05T19:23:44.085Z,72.05
2023-04-05T19:26:12.656Z,70.51
2023-04-05T19:28:41.534Z,71.70
2023-04-05T19:31:11.221Z,71.79
2023-04-05T19:33:39.555Z,71.93
2023-04-05T19:36:07.723Z,71.52
2023-04-05T19:38:36.591Z,71.41
2023-04-05T19:41:05.132Z,71.40
2023-04-05T19:43:37.130Z,71.70
2023-04-05T19:46:09.200Z,71.38
2023-04-05T19:48:37.964Z,71.26
2023-04-05T19:51:11.146Z,70.70
2023-04-05T19:53:42.223Z,71.99
2023-04-05T19:56:14.771Z,71.14
2023-04-05T19:58:44.021Z,71.62
2023-04-05T20:01:22.934Z,71.46
2023-04-05T20:03:52.004Z,71.24
2023-04-05T20:06:23.451Z,71.27
2023-04-05T20:08:52.224Z,70.66
2023-04-05T20:11:22.441Z,71.51
2023-04-05T20:13:52.149Z,71.64
2023-04-05T20:16:29.618Z,71.82
2023-04-05T20:19:01.800Z,71.36
2023-04-05T20:21:30.281Z,72.01
2023-04-05T20:23:59.736Z,71.84
2023-04-05T20:26:32.128Z,71.44
2023-04-05T20:29:02.704Z,71.00
2023-04-05T20:34:14.263Z,70.36
2023-04-05T20:37:00.378Z,70.43
2023-04-05T20:39:30.034Z,71.27
2023-04-05T20:41:59.811Z,70.55
2023-04-05T20:44:28.264Z,70.67
2023-04-05T20:46:58.307Z,70.43
2023-04-05T20:49:30.040Z,71.50
2023-04-05T20:51:58.264Z,70.10
2023-04-05T20:54:26.383Z,70.27
2023-04-05T20:56:54.664Z,71.11
2023-04-05T20:59:22.870Z,70.30
2023-04-05T21:01:50.948Z,71.55
2023-04-05T21:04:19.079Z,70.45
2023-04-05T21:06:47.546Z,71.04
2023-04-05T21:09:15.850Z,71.50
2023-04-05T21:11:43.743Z,71.64
2023-04-05T21:14:11.806Z,70.63
2023-04-05T21:16:39.877Z,71.86
2023-04-05T21:19:08.118Z,71.42
2023-04-05T21:21:36.433Z,71.86
2023-04-05T21:24:04.753Z,71.62
2023-04-05T21:26:32.912Z,71.39
2023-04-05T21:29:01.022Z,71.11
2023-04-05T21:31:29.063Z,70.17
2023-04-05T21:33:57.097Z,70.97
2023-04-05T21:36:25.108Z,71.17
2023-04-05T21:38:53.071Z,70.74
2023-04-05T21:41:21.438Z,70.30
2023-04-05T21:43:49.305Z,70.75
2023-04-05T21:46:19.410Z,71.05
2023-04-05T21:48:48.865Z,70.93
2023-04-05T21:51:16.875Z,71.34
2023-04-05T21:53:45.102Z,71.04
2023-04-05T21:56:13.089Z,70.81
2023-04-05T21:58:42.437Z,70.74
2023-04-05T22:01:10.422Z,70.62
2023-04-05T22:03:38.789Z,71.01
2023-04-05T22:06:07.018Z,71.31
2023-04-05T22:08:35.352Z,70.40
2023-04-05T22:11:03.509Z,70.66
2023-04-05T22:13:31.788Z,70.73
2023-04-05T22:15:59.929Z,71.94
2023-04-05T22:18:29.147Z,71.03
2023-04-05T22:20:57.113Z,71.97
2023-04-05T22:23:25.378Z,71.82
2023-04-05T22:25:53.583Z,71.48
2023-04-05T22:28:22.492Z,71.27
2023-04-05T22:30:50.996Z,70.39
2023-04-05T22:33:19.135Z,70.99
2023-04-05T22:35:47.292Z,70.93
2023-04-05T22:38:15.766Z,71.81
2023-04-05T22:40:45.558Z,71.11
2023-04-05T22:43:13.828Z,71.30
2023-04-05T22:45:41.772Z,71.15
2023-04-05T22:48:10.024Z,71.62
2023-04-05T22:50:38.053Z,70.67
2023-04-05T22:53:06.464Z,70.61
2023-04-05T22:55:34.550Z,69.64
2023-04-05T22:58:02.675Z,70.62
2023-04-05T23:00:30.841Z,70.93
2023-04-05T23:02:59.332Z,71.55
2023-04-05T23:05:27.538Z,71.02
2023-04-05T23:19:20.849Z,74.47
2023-04-05T23:21:49.373Z,73.33
2023-04-05T23:24:17.450Z,74.02
2023-04-05T23:26:45.374Z,73.96
2023-04-05T23:29:13.386Z,73.24
2023-04-05T23:31:41.566Z,73.13
2023-04-05T23:34:09.499Z,73.40
2023-04-05T23:36:38.186Z,72.30
2023-04-05T23:39:07.017Z,73.05
2023-04-05T23:41:35.091Z,72.61
2023-04-05T23:44:03.026Z,72.45
2023-04-05T23:46:31.200Z,72.36
2023-04-05T23:48:59.323Z,72.16
2023-04-05T23:51:27.401Z,72.34
2023-04-05T23:53:55.510Z,72.29
2023-04-05T23:56:23.378Z,72.63
2023-04-05T23:58:51.625Z,73.60
